Time;durP1;ratioP1;P1;durP2;ratioP2;P2;SDS_P1;SDS_P2;PMS_P1;PMS_P2;Temp;Humidity;BMP_temperature;BMP_pressure;BME280_temperature;BME280_humidity;BME280_pressure;Samples;Min_cycle;Max_cycle;Signal;HPM_P1;HPM_P2
2021/10/16 00:00:31;;;;;;;10.80;2.40;;;;;;;9.16;86.05;102057.47;4991016;28;20188;-72
2021/10/16 00:02:57;;;;;;;10.00;1.97;;;;;;;9.13;86.08;102050.56;4990821;28;20215;-72
2021/10/16 00:05:22;;;;;;;8.53;2.20;;;;;;;9.14;86.57;102059.09;4990521;28;20771;-72
2021/10/16 00:07:47;;;;;;;10.03;2.20;;;;;;;9.14;86.45;102064.22;4990277;28;20610;-72
2021/10/16 00:10:13;;;;;;;7.93;2.33;;;;;;;9.16;86.13;102063.47;4990556;28;20198;-72
2021/10/16 00:12:38;;;;;;;12.57;2.60;;;;;;;9.21;85.51;102067.09;4990379;28;20180;-72
2021/10/16 00:15:05;;;;;;;7.63;2.03;;;;;;;9.22;85.73;102068.84;4990427;28;20211;-72
2021/10/16 00:17:31;;;;;;;9.67;2.13;;;;;;;9.23;85.97;102072.28;4990220;28;20693;-72
2021/10/16 00:19:56;;;;;;;12.77;2.70;;;;;;;9.22;86.25;102071.41;4990095;28;20222;-72
2021/10/16 00:22:21;;;;;;;9.63;2.30;;;;;;;9.22;85.81;102070.56;4990412;28;20231;-72
2021/10/16 00:24:48;;;;;;;13.63;2.47;;;;;;;9.16;86.30;102066.03;4990449;28;20236;-72
2021/10/16 00:27:14;;;;;;;7.83;2.47;;;;;;;9.13;85.69;102059.91;4989801;28;20204;-72
2021/10/16 00:29:40;;;;;;;11.60;2.27;;;;;;;9.08;86.44;102056.28;4988992;28;20208;-71
2021/10/16 00:32:05;;;;;;;10.20;1.93;;;;;;;9.05;86.16;102051.91;4990077;28;20180;-71
2021/10/16 00:34:31;;;;;;;16.10;2.97;;;;;;;9.00;86.06;102055.94;4988894;28;20203;-71
2021/10/16 00:36:57;;;;;;;8.23;2.60;;;;;;;9.01;86.43;102064.47;4989559;28;20208;-71
2021/10/16 00:39:22;;;;;;;7.83;2.20;;;;;;;9.00;85.24;102055.94;4989480;28;20279;-71
2021/10/16 00:41:48;;;;;;;8.63;1.80;;;;;;;9.02;86.33;102059.44;4988637;28;20283;-71
2021/10/16 00:44:23;;;;;;;7.67;1.83;;;;;;;9.07;86.09;102059.66;4988372;28;20191;-72
2021/10/16 00:46:49;;;;;;;8.47;1.77;;;;;;;9.10;85.87;102052.09;4988932;28;20710;-72
2021/10/16 00:49:16;;;;;;;8.33;2.00;;;;;;;9.13;85.68;102055.66;4988861;28;20180;-72
2021/10/16 00:51:42;;;;;;;8.70;1.93;;;;;;;9.16;86.17;102058.38;4990623;28;20847;-72
2021/10/16 00:54:09;;;;;;;7.00;2.13;;;;;;;9.15;86.15;102061.75;4987539;28;20202;-72
2021/10/16 00:56:43;;;;;;;6.43;1.60;;;;;;;9.19;86.20;102068.75;4987685;28;20916;-72
2021/10/16 00:59:09;;;;;;;7.93;1.90;;;;;;;9.21;85.84;102069.66;4988962;28;20207;-72
2021/10/16 01:01:36;;;;;;;8.60;1.93;;;;;;;9.20;85.68;102069.59;4995068;28;20658;-72
2021/10/16 01:04:03;;;;;;;8.77;2.00;;;;;;;9.24;86.10;102068.91;4984500;28;20287;-72
2021/10/16 01:06:35;;;;;;;6.73;1.93;;;;;;;9.25;85.66;102069.00;5003297;28;20212;-72
2021/10/16 01:09:01;;;;;;;10.27;2.43;;;;;;;9.26;85.34;102068.19;4998077;28;20262;-72
2021/10/16 01:11:43;;;;;;;7.83;1.93;;;;;;;9.27;85.23;102072.47;4988290;28;20195;-72
2021/10/16 01:14:11;;;;;;;9.67;2.33;;;;;;;9.26;86.04;102073.28;4996965;28;20176;-72
2021/10/16 01:16:40;;;;;;;7.23;2.13;;;;;;;9.29;85.09;102070.00;4987334;28;20214;-72
2021/10/16 01:19:12;;;;;;;7.93;2.20;;;;;;;9.31;85.48;102073.50;4989398;28;20196;-72
2021/10/16 01:21:42;;;;;;;9.03;2.10;;;;;;;9.31;84.95;102073.50;4990180;28;20235;-72
2021/10/16 01:24:10;;;;;;;10.53;2.10;;;;;;;9.31;85.55;102071.81;4989210;28;20180;-72
2021/10/16 01:26:36;;;;;;;8.37;2.23;;;;;;;9.30;85.65;102074.31;4988834;28;20223;-72
2021/10/16 01:29:02;;;;;;;9.63;2.40;;;;;;;9.32;85.80;102082.94;4989621;28;20281;-72
2021/10/16 01:31:27;;;;;;;7.70;2.00;;;;;;;9.35;85.71;102088.19;4987202;28;20250;-72
2021/10/16 01:33:53;;;;;;;11.73;2.10;;;;;;;9.37;86.08;102091.66;4989660;28;20242;-72
2021/10/16 01:36:19;;;;;;;5.10;1.97;;;;;;;9.38;86.00;102089.19;4988293;28;20709;-72
2021/10/16 01:38:46;;;;;;;9.07;2.07;;;;;;;9.38;86.41;102083.19;5003599;28;20184;-72
2021/10/16 01:41:11;;;;;;;9.77;2.10;;;;;;;9.38;86.47;102085.75;4988954;28;20274;-72
2021/10/16 01:43:37;;;;;;;8.63;2.27;;;;;;;9.39;86.88;102087.47;4988812;28;20650;-71
2021/10/16 01:46:02;;;;;;;7.97;2.07;;;;;;;9.36;86.65;102077.16;4987632;28;20212;-71
2021/10/16 01:48:28;;;;;;;7.50;2.30;;;;;;;9.37;87.25;102071.22;4984416;28;20283;-71
2021/10/16 01:50:54;;;;;;;7.07;1.90;;;;;;;9.35;87.85;102076.25;4985362;28;20194;-71
2021/10/16 01:53:26;;;;;;;9.43;2.37;;;;;;;9.34;88.24;102068.50;4981319;28;20192;-71
2021/10/16 01:55:57;;;;;;;9.13;2.53;;;;;;;9.31;87.87;102073.50;4979774;28;20654;-71
2021/10/16 01:58:25;;;;;;;9.70;2.57;;;;;;;9.30;88.25;102089.66;4992507;28;20192;-71
2021/10/16 02:01:07;;;;;;;10.40;2.23;;;;;;;9.29;88.04;102077.66;4992740;28;20195;-71
2021/10/16 02:03:33;;;;;;;8.23;2.30;;;;;;;9.31;87.71;102076.06;4994214;28;20188;-71
2021/10/16 02:06:03;;;;;;;9.83;2.33;;;;;;;9.29;88.59;102072.56;4985625;28;20295;-72
2021/10/16 02:08:42;;;;;;;10.17;2.37;;;;;;;9.28;87.99;102075.94;4989071;28;20187;-71
2021/10/16 02:11:08;;;;;;;7.53;2.40;;;;;;;9.29;88.31;102075.13;4978165;28;20195;-71
2021/10/16 02:13:41;;;;;;;9.40;3.00;;;;;;;9.27;88.66;102084.41;4989295;28;20223;-71
2021/10/16 02:16:07;;;;;;;9.17;2.17;;;;;;;9.25;89.03;102080.88;4991583;28;20223;-71
2021/10/16 02:18:39;;;;;;;5.70;2.07;;;;;;;9.26;88.67;102080.09;4991287;28;20191;-71
2021/10/16 02:21:04;;;;;;;10.63;2.63;;;;;;;9.25;88.75;102086.00;5006719;28;20673;-71
2021/10/16 02:23:31;;;;;;;11.03;2.70;;;;;;;9.23;89.08;102087.63;5008339;28;20192;-72
2021/10/16 02:25:56;;;;;;;15.07;2.93;;;;;;;9.21;88.48;102086.69;4974750;28;20208;-71
2021/10/16 02:28:24;;;;;;;9.53;2.40;;;;;;;9.23;88.71;102085.06;4990474;28;20223;-72
2021/10/16 02:31:01;;;;;;;10.43;2.27;;;;;;;9.24;88.56;102089.38;4998087;28;20195;-72
2021/10/16 02:33:28;;;;;;;10.17;2.50;;;;;;;9.25;88.44;102088.56;4987660;28;20192;-71
2021/10/16 02:35:54;;;;;;;11.87;2.50;;;;;;;9.22;88.81;102086.75;4990552;28;20239;-71
2021/10/16 02:38:19;;;;;;;10.07;2.63;;;;;;;9.24;88.43;102085.16;5004759;28;20212;-71
2021/10/16 02:40:44;;;;;;;8.20;2.33;;;;;;;9.23;88.16;102085.06;4991399;28;20189;-71
2021/10/16 02:43:10;;;;;;;10.17;2.77;;;;;;;9.19;88.27;102091.72;4990301;28;20187;-71
2021/10/16 02:45:35;;;;;;;9.93;2.70;;;;;;;9.20;88.50;102087.47;4990744;28;20295;-72
2021/10/16 02:48:01;;;;;;;8.60;2.60;;;;;;;9.18;88.64;102091.66;4990123;28;20214;-71
2021/10/16 02:50:29;;;;;;;11.67;3.27;;;;;;;9.16;88.19;102089.03;4992431;28;20196;-71
2021/10/16 02:52:55;;;;;;;12.70;3.33;;;;;;;9.16;88.82;102083.91;4992830;28;20191;-72
2021/10/16 02:55:21;;;;;;;12.10;2.90;;;;;;;9.15;88.83;102089.84;4990108;28;20327;-71
2021/10/16 02:57:53;;;;;;;11.43;2.87;;;;;;;9.15;89.16;102083.84;4986731;28;20231;-71
2021/10/16 03:00:19;;;;;;;10.93;3.13;;;;;;;9.14;88.79;102089.78;5002122;28;20603;-71
2021/10/16 03:02:44;;;;;;;9.00;2.60;;;;;;;9.16;89.28;102080.47;4989891;28;20275;-71
2021/10/16 03:05:10;;;;;;;8.07;2.73;;;;;;;9.16;88.36;102083.03;4989609;28;20216;-71
2021/10/16 03:07:36;;;;;;;9.50;3.03;;;;;;;9.16;88.14;102085.59;4992157;28;20211;-72
2021/10/16 03:10:02;;;;;;;8.53;2.47;;;;;;;9.15;88.25;102088.97;4993979;28;20184;-72
2021/10/16 03:12:28;;;;;;;8.20;2.10;;;;;;;9.14;88.93;102092.31;4988960;28;20188;-72
2021/10/16 03:14:58;;;;;;;11.00;2.87;;;;;;;9.14;88.63;102093.22;4989562;28;20191;-72
2021/10/16 03:17:24;;;;;;;10.57;2.80;;;;;;;9.16;88.15;102098.38;4990431;28;20723;-72
2021/10/16 03:19:49;;;;;;;11.83;3.00;;;;;;;9.14;88.90;102093.22;4991631;28;20188;-71
2021/10/16 03:22:16;;;;;;;11.20;2.83;;;;;;;9.17;88.75;102087.38;4990495;28;20184;-72
2021/10/16 03:24:42;;;;;;;7.17;2.57;;;;;;;9.18;88.36;102097.66;5007240;28;20214;-72
2021/10/16 03:27:07;;;;;;;9.00;2.60;;;;;;;9.19;88.15;102098.50;4987674;28;20212;-72
2021/10/16 03:29:33;;;;;;;6.87;2.33;;;;;;;9.20;88.31;102098.59;4989166;28;20192;-72
2021/10/16 03:32:00;;;;;;;9.40;2.57;;;;;;;9.19;88.81;102099.41;4991488;28;20195;-72
2021/10/16 03:34:29;;;;;;;11.77;2.80;;;;;;;9.20;88.56;102101.16;4991150;28;20553;-72
2021/10/16 03:36:56;;;;;;;8.60;2.73;;;;;;;9.22;88.30;102096.09;4988249;28;20210;-72
2021/10/16 03:39:22;;;;;;;11.60;2.80;;;;;;;9.23;88.57;102098.72;4990412;28;20188;-72
2021/10/16 03:41:47;;;;;;;7.77;3.10;;;;;;;9.22;88.62;102093.56;4987673;28;20192;-72
2021/10/16 03:44:12;;;;;;;6.07;2.87;;;;;;;9.21;88.35;102096.91;4991067;28;20292;-72
2021/10/16 03:46:38;;;;;;;7.40;2.93;;;;;;;9.17;88.57;102092.47;4984636;28;20250;-72
2021/10/16 03:49:05;;;;;;;8.87;3.10;;;;;;;9.16;88.48;102094.13;4969294;28;20224;-72
2021/10/16 03:51:30;;;;;;;10.97;3.40;;;;;;;9.17;88.44;102092.47;4996863;28;20199;-71
2021/10/16 03:53:56;;;;;;;7.40;3.10;;;;;;;9.15;88.55;102086.41;4990620;28;20184;-71
2021/10/16 03:56:21;;;;;;;8.23;3.20;;;;;;;9.15;89.01;102087.28;4987984;28;20215;-72
2021/10/16 03:58:47;;;;;;;10.97;4.10;;;;;;;9.13;88.57;102090.59;4990111;28;20787;-71
2021/10/16 04:01:12;;;;;;;9.23;3.90;;;;;;;9.07;88.97;102097.97;4990276;28;20633;-71
2021/10/16 04:03:37;;;;;;;8.90;3.83;;;;;;;9.02;88.56;102089.19;5002930;28;20202;-71
2021/10/16 04:06:04;;;;;;;8.97;3.80;;;;;;;8.96;88.96;102092.38;4990472;28;20633;-71
2021/10/16 04:08:30;;;;;;;10.20;4.33;;;;;;;8.91;89.16;102101.50;4996561;28;20191;-71
2021/10/16 04:10:55;;;;;;;10.30;4.87;;;;;;;8.86;88.61;102102.09;4987991;28;20203;-71
2021/10/16 04:13:20;;;;;;;11.17;4.83;;;;;;;8.81;89.07;102099.31;4990486;28;20200;-71
2021/10/16 04:15:51;;;;;;;15.47;5.37;;;;;;;8.84;89.35;102101.16;5001997;28;20995;-71
2021/10/16 04:18:16;;;;;;;9.60;4.93;;;;;;;8.84;89.37;102104.56;5006036;28;20294;-71
2021/10/16 04:20:41;;;;;;;12.67;5.10;;;;;;;8.89;89.56;102102.25;5002326;28;20180;-71
2021/10/16 04:23:07;;;;;;;15.13;5.47;;;;;;;8.92;88.63;102098.16;4992633;28;20199;-71
2021/10/16 04:25:33;;;;;;;15.33;5.90;;;;;;;8.94;89.38;102101.63;4988753;28;20575;-71
2021/10/16 04:27:59;;;;;;;12.40;5.43;;;;;;;8.95;88.60;102097.41;4989386;28;20200;-71
2021/10/16 04:30:32;;;;;;;9.03;4.60;;;;;;;8.93;88.84;102096.44;5000250;28;20187;-71
2021/10/16 04:32:59;;;;;;;14.37;5.37;;;;;;;8.95;88.77;102095.75;4992395;28;20184;-71
2021/10/16 04:35:25;;;;;;;10.57;4.73;;;;;;;8.95;88.42;102098.28;4987706;28;20177;-71
2021/10/16 04:37:50;;;;;;;8.40;4.57;;;;;;;8.94;88.43;102088.84;4988201;28;20230;-71
2021/10/16 04:40:21;;;;;;;9.63;4.63;;;;;;;8.94;89.04;102088.00;4981694;28;20200;-71
2021/10/16 04:42:49;;;;;;;11.23;5.17;;;;;;;8.92;88.85;102094.69;5001447;28;20180;-71
2021/10/16 04:45:15;;;;;;;10.00;4.60;;;;;;;8.90;88.78;102092.06;4988379;28;20277;-71
2021/10/16 04:47:41;;;;;;;10.13;4.87;;;;;;;8.91;88.90;102096.41;4988515;28;20212;-71
2021/10/16 04:50:08;;;;;;;9.30;4.30;;;;;;;8.89;88.49;102098.00;4987068;28;20240;-71
2021/10/16 04:52:37;;;;;;;9.40;5.07;;;;;;;8.87;88.46;102101.28;4989106;28;20243;-71
2021/10/16 04:55:08;;;;;;;13.37;5.00;;;;;;;8.86;88.06;102104.66;4988540;28;20196;-71
2021/10/16 04:57:33;;;;;;;9.23;5.03;;;;;;;8.80;88.51;102099.25;5001931;28;20212;-71
2021/10/16 04:59:58;;;;;;;15.77;5.37;;;;;;;8.78;89.01;102098.31;4988784;28;20176;-71
2021/10/16 05:02:25;;;;;;;11.37;5.43;;;;;;;8.73;88.91;102099.78;4972138;28;20234;-71
2021/10/16 05:04:54;;;;;;;7.70;4.80;;;;;;;8.67;88.62;102102.03;4982992;28;20306;-72
2021/10/16 05:07:20;;;;;;;11.23;4.80;;;;;;;8.61;88.58;102101.75;4988104;28;20219;-71
2021/10/16 05:09:45;;;;;;;11.67;5.13;;;;;;;8.54;88.87;102100.59;4992870;28;20188;-71
2021/10/16 05:12:14;;;;;;;13.93;5.17;;;;;;;8.53;88.84;102095.41;4989075;28;20195;-71
2021/10/16 05:14:40;;;;;;;12.40;5.03;;;;;;;8.50;88.09;102105.47;4989243;28;20203;-71
2021/10/16 05:17:05;;;;;;;11.43;5.57;;;;;;;8.45;89.11;102102.72;4988742;28;20200;-71
2021/10/16 05:19:31;;;;;;;13.67;5.50;;;;;;;8.44;89.04;102103.47;4996321;28;20199;-71
2021/10/16 05:21:57;;;;;;;13.63;5.40;;;;;;;8.43;88.79;102106.84;4989111;28;20521;-71
2021/10/16 05:24:22;;;;;;;11.07;5.47;;;;;;;8.42;89.24;102094.91;4988870;28;20560;-71
2021/10/16 05:26:49;;;;;;;14.30;4.60;;;;;;;8.41;88.36;102102.47;4987041;28;20231;-71
2021/10/16 05:29:14;;;;;;;11.63;5.50;;;;;;;8.40;88.57;102103.28;4989781;28;20665;-71
2021/10/16 05:31:40;;;;;;;9.57;5.37;;;;;;;8.40;90.01;102103.28;4986050;28;20226;-71
2021/10/16 05:34:06;;;;;;;13.47;5.37;;;;;;;8.43;90.08;102103.44;4988691;28;20210;-70
2021/10/16 05:36:31;;;;;;;13.83;5.40;;;;;;;8.43;90.07;102104.28;4986256;28;20203;-70
2021/10/16 05:38:56;;;;;;;10.87;5.30;;;;;;;8.44;89.64;102108.59;4983976;28;20231;-70
2021/10/16 05:41:22;;;;;;;12.70;5.17;;;;;;;8.40;89.62;102110.94;4988631;28;20715;-70
2021/10/16 05:43:48;;;;;;;9.33;5.43;;;;;;;8.41;89.24;102111.00;4969888;28;20287;-71
2021/10/16 05:46:14;;;;;;;11.07;6.00;;;;;;;8.37;89.11;102109.13;4985019;28;20307;-70
2021/10/16 05:48:39;;;;;;;9.37;5.13;;;;;;;8.34;89.50;102111.50;4969687;28;20188;-70
2021/10/16 05:51:07;;;;;;;12.93;6.00;;;;;;;8.31;89.28;102118.16;4969316;28;20183;-70
2021/10/16 05:53:33;;;;;;;12.67;5.50;;;;;;;8.27;90.16;102119.69;4985288;28;20271;-70
2021/10/16 05:55:58;;;;;;;9.57;4.97;;;;;;;8.25;89.65;102113.59;4989666;28;20611;-70
2021/10/16 05:58:25;;;;;;;13.23;5.63;;;;;;;8.24;88.22;102116.13;4988692;28;20190;-70
2021/10/16 06:00:51;;;;;;;14.00;5.87;;;;;;;8.22;89.01;102126.25;4988538;28;20269;-70
2021/10/16 06:03:21;;;;;;;18.20;6.03;;;;;;;8.17;88.74;102124.22;4988354;28;20811;-70
2021/10/16 06:05:51;;;;;;;11.07;6.03;;;;;;;8.21;88.97;102126.16;4988205;28;20223;-70
2021/10/16 06:08:16;;;;;;;14.30;6.60;;;;;;;8.21;88.37;102132.13;4988414;28;20558;-71
2021/10/16 06:10:42;;;;;;;12.43;6.63;;;;;;;8.25;88.76;102128.06;4988646;28;20215;-70
2021/10/16 06:13:08;;;;;;;11.93;6.50;;;;;;;8.28;88.74;102129.09;4972518;28;20184;-70
2021/10/16 06:15:33;;;;;;;12.23;6.70;;;;;;;8.31;88.51;102126.69;4988452;28;20196;-69
2021/10/16 06:18:01;;;;;;;14.83;6.63;;;;;;;8.30;87.83;102132.56;4989647;28;20274;-70
2021/10/16 06:20:30;;;;;;;12.37;6.27;;;;;;;8.33;87.29;102134.38;4988595;28;20199;-71
2021/10/16 06:22:56;;;;;;;14.17;6.30;;;;;;;8.38;88.21;102132.97;4988306;28;20274;-70
2021/10/16 06:25:21;;;;;;;11.93;6.50;;;;;;;8.39;88.18;102134.72;4988015;28;20622;-71
2021/10/16 06:27:47;;;;;;;12.40;6.73;;;;;;;8.44;87.02;102139.22;4971833;28;20709;-71
2021/10/16 06:30:13;;;;;;;11.23;6.03;;;;;;;8.46;87.97;102144.41;4987923;28;20215;-71
2021/10/16 06:32:38;;;;;;;15.10;6.80;;;;;;;8.50;87.83;102151.41;4990818;28;20218;-71
2021/10/16 06:35:05;;;;;;;12.93;7.10;;;;;;;8.49;87.34;102163.31;4976088;28;20647;-70
2021/10/16 06:37:31;;;;;;;10.93;6.47;;;;;;;8.51;87.58;102163.38;4969059;28;20280;-71
2021/10/16 06:39:56;;;;;;;11.37;5.47;;;;;;;8.49;87.41;102163.31;4988226;28;20193;-70
2021/10/16 06:42:24;;;;;;;12.07;6.37;;;;;;;8.40;87.42;102160.31;4988195;28;20203;-71
2021/10/16 06:45:09;;;;;;;11.90;6.20;;;;;;;8.42;87.33;102176.56;4973128;28;20232;-71
2021/10/16 06:47:39;;;;;;;10.93;6.27;;;;;;;8.39;86.66;102173.84;4988162;28;20204;-71
2021/10/16 06:50:20;;;;;;;12.37;6.67;;;;;;;8.41;87.37;102179.91;4989540;28;20886;-71
2021/10/16 06:52:46;;;;;;;9.23;5.23;;;;;;;8.44;86.21;102177.50;4976772;28;20192;-73
2021/10/16 06:55:14;;;;;;;13.60;6.97;;;;;;;8.51;86.16;102179.56;4974576;28;20662;-72
2021/10/16 06:57:39;;;;;;;16.03;6.73;;;;;;;8.57;85.60;102190.06;4983590;28;20250;-72
2021/10/16 07:00:05;;;;;;;10.00;6.30;;;;;;;8.65;85.89;102190.44;4990035;28;20180;-72
2021/10/16 07:02:33;;;;;;;13.03;6.70;;;;;;;8.72;85.39;102192.50;4976419;28;20190;-72
2021/10/16 07:05:06;;;;;;;17.97;9.47;;;;;;;8.87;85.28;102186.44;4987634;28;20216;-72
2021/10/16 07:07:31;;;;;;;13.03;7.40;;;;;;;9.02;84.19;102188.84;4971260;28;20215;-72
2021/10/16 07:10:01;;;;;;;12.80;6.57;;;;;;;9.19;83.96;102193.06;4971484;28;20188;-72
2021/10/16 07:12:27;;;;;;;12.20;5.83;;;;;;;9.21;84.35;102192.31;4972821;28;20199;-72
2021/10/16 07:14:52;;;;;;;11.40;6.80;;;;;;;9.23;84.60;102193.28;4973872;28;20192;-72
2021/10/16 07:17:18;;;;;;;13.10;6.30;;;;;;;9.30;84.02;102197.00;4971386;28;20209;-71
2021/10/16 07:19:44;;;;;;;11.50;5.93;;;;;;;9.32;84.69;102192.81;4974055;28;20232;-71
2021/10/16 07:22:09;;;;;;;9.43;4.97;;;;;;;9.36;84.04;102199.84;4972815;28;20882;-71
2021/10/16 07:24:35;;;;;;;11.73;5.77;;;;;;;9.36;85.06;102202.41;4972732;28;20558;-71
2021/10/16 07:27:00;;;;;;;10.07;5.17;;;;;;;9.45;85.00;102207.94;4973861;28;20300;-71
2021/10/16 07:29:25;;;;;;;13.30;5.27;;;;;;;9.34;84.30;102209.97;4973061;28;20654;-71
2021/10/16 07:31:53;;;;;;;14.30;5.50;;;;;;;9.49;84.05;102213.22;4972750;28;20215;-71
2021/10/16 07:34:20;;;;;;;9.50;4.43;;;;;;;9.51;83.89;102215.88;4984549;28;20223;-71
2021/10/16 07:36:46;;;;;;;9.80;4.77;;;;;;;9.41;83.60;102214.59;4985074;28;20269;-71
2021/10/16 07:39:13;;;;;;;9.93;4.73;;;;;;;9.42;83.69;102216.34;4987326;28;20192;-71
2021/10/16 07:41:38;;;;;;;10.40;5.00;;;;;;;9.36;84.70;102220.28;4990281;28;20675;-71
2021/10/16 07:44:05;;;;;;;10.23;5.20;;;;;;;9.39;84.35;102213.63;4991859;28;20187;-71
2021/10/16 07:46:31;;;;;;;9.40;4.97;;;;;;;9.33;84.67;102221.03;4973105;28;20228;-72
2021/10/16 07:48:56;;;;;;;16.70;5.80;;;;;;;9.32;84.85;102220.94;4971407;28;20517;-72
2021/10/16 07:51:22;;;;;;;12.50;5.80;;;;;;;9.31;83.83;102217.50;4971847;28;20196;-72
2021/10/16 07:53:47;;;;;;;9.97;4.70;;;;;;;9.29;84.34;102223.34;4972176;28;20276;-72
2021/10/16 07:56:13;;;;;;;12.27;5.47;;;;;;;9.35;83.62;102224.50;4979052;28;20247;-73
2021/10/16 07:58:39;;;;;;;10.33;5.33;;;;;;;9.43;84.21;102222.31;4984839;28;20215;-70
2021/10/16 08:01:06;;;;;;;7.33;4.80;;;;;;;9.47;83.92;102230.19;4991017;28;20236;-71
2021/10/16 08:03:31;;;;;;;8.07;5.00;;;;;;;9.43;84.03;102232.53;4990890;28;20267;-71
2021/10/16 08:05:56;;;;;;;12.20;5.83;;;;;;;9.44;83.95;102224.06;4989407;28;20253;-73
2021/10/16 08:08:22;;;;;;;11.23;4.60;;;;;;;9.45;83.30;102231.78;4989490;28;20212;-72
2021/10/16 08:10:48;;;;;;;8.87;5.47;;;;;;;9.57;83.45;102231.47;4989659;28;20602;-72
2021/10/16 08:13:13;;;;;;;9.63;5.20;;;;;;;9.61;83.92;102236.81;4990908;28;20426;-72
2021/10/16 08:15:39;;;;;;;11.07;4.90;;;;;;;9.66;83.29;102235.34;4990879;28;20208;-72
2021/10/16 08:18:04;;;;;;;10.20;5.03;;;;;;;9.74;83.41;102228.00;4989755;28;20207;-71
2021/10/16 08:20:30;;;;;;;10.93;6.13;;;;;;;9.89;82.63;102231.25;4973898;28;20203;-73
2021/10/16 08:22:55;;;;;;;12.17;5.83;;;;;;;9.91;82.22;102233.06;4991241;28;20179;-74
2021/10/16 08:25:21;;;;;;;9.50;4.63;;;;;;;9.98;81.92;102229.97;4990996;28;20685;-72
2021/10/16 08:27:47;;;;;;;9.43;4.20;;;;;;;10.14;81.88;102234.97;4990700;28;20212;-71
2021/10/16 08:30:15;;;;;;;7.57;4.63;;;;;;;10.20;81.72;102226.69;4991072;28;20598;-71
2021/10/16 08:32:41;;;;;;;7.73;4.23;;;;;;;10.20;81.93;102230.13;4990898;28;20279;-71
2021/10/16 08:35:07;;;;;;;9.47;4.77;;;;;;;10.17;82.67;102221.44;4991341;28;20184;-72
2021/10/16 08:37:33;;;;;;;10.03;4.97;;;;;;;10.11;82.24;102226.28;4991583;28;20223;-71
2021/10/16 08:39:58;;;;;;;10.80;5.43;;;;;;;10.17;82.88;102221.44;4991485;28;20612;-72
2021/10/16 08:42:24;;;;;;;9.13;5.23;;;;;;;10.27;82.33;102224.44;4990974;28;20286;-71
2021/10/16 08:44:51;;;;;;;8.33;4.17;;;;;;;10.27;81.02;102227.00;4990677;28;20299;-71
2021/10/16 08:47:18;;;;;;;8.43;4.53;;;;;;;10.32;81.55;102225.53;4989178;28;20303;-72
2021/10/16 08:49:44;;;;;;;7.73;4.17;;;;;;;10.39;81.34;102231.78;4990360;28;20802;-71
2021/10/16 08:52:09;;;;;;;9.83;4.77;;;;;;;10.32;81.85;102216.97;4990168;28;20203;-72
2021/10/16 08:54:37;;;;;;;6.23;3.77;;;;;;;10.38;81.16;102218.13;4963536;28;20736;-71
2021/10/16 08:57:02;;;;;;;8.90;4.10;;;;;;;10.51;80.84;102222.91;4978921;28;20216;-72
2021/10/16 08:59:28;;;;;;;8.70;4.23;;;;;;;10.77;80.21;102218.84;4970816;28;20286;-71
2021/10/16 09:01:55;;;;;;;10.73;4.20;;;;;;;10.79;79.40;102227.50;4970478;28;20189;-71
2021/10/16 09:04:21;;;;;;;8.80;3.97;;;;;;;11.11;79.36;102221.97;4970878;28;20219;-71
2021/10/16 09:06:47;;;;;;;12.60;4.27;;;;;;;11.14;79.20;102230.66;4970315;28;20574;-71
2021/10/16 09:09:12;;;;;;;9.47;4.47;;;;;;;11.39;77.80;102228.19;4970937;28;20980;-72
2021/10/16 09:11:47;;;;;;;9.83;4.00;;;;;;;11.26;76.58;102223.44;4969537;28;20239;-72
2021/10/16 09:14:17;;;;;;;11.93;3.90;;;;;;;11.39;76.56;102228.19;4970864;28;20204;-72
2021/10/16 09:16:53;;;;;;;9.90;4.20;;;;;;;11.61;77.00;102220.53;4970388;28;20201;-73
2021/10/16 09:19:38;;;;;;;10.30;4.10;;;;;;;11.71;74.55;102212.34;4970434;28;20250;-72
2021/10/16 09:22:13;;;;;;;9.13;3.77;;;;;;;12.80;71.84;102207.63;4970460;28;20196;-73
2021/10/16 09:24:40;;;;;;;9.37;3.40;;;;;;;12.67;71.75;102209.78;4970466;28;20207;-72
2021/10/16 09:27:09;;;;;;;10.23;3.60;;;;;;;13.19;70.93;102208.06;4970303;28;20826;-72
2021/10/16 09:29:36;;;;;;;9.03;3.43;;;;;;;13.54;69.44;102209.97;4970455;28;20203;-72
2021/10/16 09:32:10;;;;;;;7.23;3.47;;;;;;;13.58;68.31;102210.94;4970423;28;20550;-73
2021/10/16 09:34:38;;;;;;;6.07;3.40;;;;;;;13.75;67.79;102210.59;4969385;28;20218;-72
2021/10/16 09:37:06;;;;;;;8.87;3.23;;;;;;;13.43;68.43;102206.22;4970245;28;20278;-74
2021/10/16 09:39:33;;;;;;;7.50;3.13;;;;;;;13.36;68.77;102212.00;4970647;28;20236;-73
2021/10/16 09:41:59;;;;;;;7.03;3.20;;;;;;;13.74;67.01;102203.69;4969041;28;20220;-73
2021/10/16 09:44:33;;;;;;;5.70;2.90;;;;;;;13.92;67.08;102209.38;4969284;28;20847;-73
2021/10/16 09:47:00;;;;;;;9.60;3.17;;;;;;;13.75;67.28;102218.31;4970579;28;20212;-72
2021/10/16 09:49:33;;;;;;;8.43;3.17;;;;;;;13.59;68.05;102212.69;4970428;28;20188;-73
2021/10/16 09:51:59;;;;;;;6.67;2.73;;;;;;;13.92;66.00;102211.94;4970200;28;20212;-73
2021/10/16 09:54:25;;;;;;;5.17;2.83;;;;;;;13.70;67.26;102208.69;4954925;28;20732;-73
2021/10/16 09:56:51;;;;;;;8.43;3.00;;;;;;;13.93;67.56;102211.09;4969504;28;20208;-73
2021/10/16 09:59:23;;;;;;;7.63;2.80;;;;;;;13.69;66.56;102215.56;4970228;28;20200;-72
2021/10/16 10:01:49;;;;;;;10.03;3.73;;;;;;;14.00;67.30;102210.44;4970327;28;20250;-73
2021/10/16 10:04:17;;;;;;;5.30;2.43;;;;;;;14.01;67.06;102207.03;4970135;28;20193;-72
2021/10/16 10:06:45;;;;;;;6.23;2.43;;;;;;;14.01;66.31;102212.19;4969950;28;20220;-72
2021/10/16 10:09:10;;;;;;;8.67;3.00;;;;;;;14.04;66.18;102220.00;4970404;28;20199;-72
2021/10/16 10:11:38;;;;;;;10.23;3.27;;;;;;;13.91;66.84;102217.91;4969215;28;20200;-73
2021/10/16 10:14:04;;;;;;;9.57;2.73;;;;;;;14.10;65.51;102207.31;4973089;28;20297;-73
2021/10/16 10:16:32;;;;;;;7.50;2.70;;;;;;;14.03;66.59;102209.63;4973237;28;20216;-73
2021/10/16 10:19:00;;;;;;;7.27;2.73;;;;;;;13.94;67.08;102207.69;4973524;28;20193;-72
2021/10/16 10:21:44;;;;;;;7.77;4.20;;;;;;;13.65;67.75;102218.00;4973523;28;20204;-72
2021/10/16 10:24:12;;;;;;;8.23;3.90;;;;;;;13.78;67.14;102213.25;4973728;28;20200;-72
2021/10/16 10:26:40;;;;;;;12.67;2.90;;;;;;;13.73;66.99;102203.66;4973409;28;20638;-72
2021/10/16 10:29:07;;;;;;;6.10;2.90;;;;;;;13.63;67.00;102211.94;4973757;28;20255;-72
2021/10/16 10:31:45;;;;;;;6.43;2.67;;;;;;;14.13;67.32;102201.34;4973605;28;20284;-72
2021/10/16 10:34:24;;;;;;;7.67;2.80;;;;;;;14.08;65.09;102206.38;4972163;28;20280;-72
2021/10/16 10:36:55;;;;;;;7.70;2.50;;;;;;;14.49;65.55;102197.16;4971950;28;20672;-72
2021/10/16 10:39:35;;;;;;;6.77;2.50;;;;;;;14.63;63.38;102207.00;4972738;28;20204;-71
2021/10/16 10:42:13;;;;;;;5.87;2.20;;;;;;;14.84;61.90;102196.34;4973423;28;20197;-72
2021/10/16 10:44:47;;;;;;;7.30;2.40;;;;;;;15.41;61.07;102193.38;4971929;28;20199;-72
2021/10/16 10:47:33;;;;;;;6.90;2.43;;;;;;;15.66;60.49;102198.22;4971835;28;20206;-72
2021/10/16 10:50:05;;;;;;;8.07;2.40;;;;;;;17.23;56.14;102194.13;4972040;28;20193;-72
2021/10/16 10:53:07;;;;;;;9.20;2.27;;;;;;;16.59;57.43;102186.22;4987007;28;20192;-72
2021/10/16 10:55:52;;;;;;;7.63;2.37;;;;;;;16.23;57.45;102203.66;4973414;28;20271;-72
2021/10/16 10:58:20;;;;;;;5.87;2.30;;;;;;;15.82;57.23;102195.13;4973382;28;20212;-71
2021/10/16 11:00:45;;;;;;;7.63;2.50;;;;;;;15.66;57.88;102195.63;4973489;28;20185;-71
2021/10/16 11:03:29;;;;;;;8.33;2.73;;;;;;;16.88;55.91;102184.97;4973275;28;20700;-72
2021/10/16 11:05:58;;;;;;;5.87;2.37;;;;;;;18.58;50.39;102180.16;4955519;28;20278;-71
2021/10/16 11:08:23;;;;;;;6.33;2.30;;;;;;;20.01;46.71;102177.50;4973122;28;20265;-72
2021/10/16 11:10:57;;;;;;;5.73;2.20;;;;;;;18.30;50.56;102183.34;4973224;28;20201;-72
2021/10/16 11:13:22;;;;;;;6.00;2.30;;;;;;;16.37;54.61;102184.06;4971863;28;20196;-72
2021/10/16 11:16:03;;;;;;;8.23;2.60;;;;;;;15.92;56.79;102188.41;4970965;28;20180;-73
2021/10/16 11:18:28;;;;;;;7.23;2.70;;;;;;;15.60;57.49;102181.72;4970906;28;20287;-73
2021/10/16 11:21:00;;;;;;;4.50;2.03;;;;;;;15.18;58.54;102185.94;4972945;28;20264;-72
2021/10/16 11:23:26;;;;;;;9.63;2.60;;;;;;;15.58;57.97;102186.00;4972359;28;20291;-73
2021/10/16 11:26:00;;;;;;;6.47;2.30;;;;;;;15.41;58.22;102182.19;4971092;28;20219;-73
2021/10/16 11:28:27;;;;;;;8.27;2.63;;;;;;;15.77;57.83;102178.66;4971337;28;20207;-73